Latest Coastal Weather Observations for Port Lincoln Airport

IDS60701

Issued at 7:21 am CST Saturday 1 October 2016 (issued every 10 minutes, with the page automatically refreshed every 10 minutes)

About coastal observations | Map of coastal stations | Coastal observations for SA | Marine services | Other Formats
Station Details ID: 018192 Name: PORT LINCOLN AWS Lat: -34.60 Lon: 135.88 Height: 8.5 m
Data from the previous 72 hours. | See also: Recent months at Port Lincoln Airport
Date/Time
CST
Temp
°C
Wind Pressure Rain since
9am
mm
Weather Cloud Vis
km
Sea
Height
m
Swell
Dir  Spd
kts
Gust
kts
hPa Trend Height
m
Period
s
Dir
01/07:00am 6.8 NNW 6 7 1006.8 - 0.4 - - - - - - -
01/06:30am 6.0 NNW 7 9 1006.6 - 0.4 - - - - - - -
01/06:00am 5.9 NNW 8 10 1006.5 - 0.4 - - - - - - -
01/05:30am 4.6 NW 5 6 1006.5 - 0.4 - - - - - - -
01/05:00am 4.8 NW 4 4 1006.4 - 0.4 - - - - - - -
01/04:30am 5.8 CALM 0 0 1006.3 - 0.4 - - - - - - -
01/04:00am 6.3 NNW 3 4 1006.5 - 0.4 - - - - - - -
01/03:30am 7.8 N 4 5 1006.8 - 0.4 - - - - - - -
01/03:00am 9.3 WSW 5 7 1007.2 - 0.4 - - - - - - -
01/02:30am 9.9 WNW 6 9 1007.5 - 0.4 - - - - - - -
01/02:00am 10.1 NW 8 13 1007.7 - 0.4 - - - - - - -
01/01:30am 9.8 WNW 7 10 1008.0 - 0.4 - - - - - - -
01/01:00am 9.8 WNW 5 7 1008.2 - 0.4 - - - - - - -
01/12:30am 10.0 W 8 11 1008.2 - 0.4 - - - - - - -
01/12:00am 10.1 W 7 11 1008.4 - 0.4 - - - - - - -
 
Date/Time
CST
Temp
°C
Wind Pressure Rain since
9am
mm
Weather Cloud Vis
km
Sea
Height
m
Swell
Dir  Spd
kts
Gust
kts
hPa Trend Height
m
Period
s
Dir
30/11:30pm 9.8 WNW 5 7 1008.5 - 0.4 - - - - - - -
30/11:00pm 10.2 WNW 6 9 1008.9 - 0.4 - - - - - - -
30/10:30pm 10.2 NW 5 8 1009.0 - 0.4 - - - - - - -
30/10:00pm 10.2 NW 6 7 1008.8 - 0.4 - - - - - - -
30/09:30pm 10.4 WNW 6 7 1008.8 - 0.4 - - - - - - -
30/09:00pm 10.4 NW 8 11 1008.8 - 0.4 - - - - - - -
30/08:30pm 10.3 NW 6 8 1008.7 - 0.4 - - - - - - -
30/08:00pm 10.1 W 7 8 1008.7 - 0.4 - - - - - - -
30/07:30pm 10.0 W 5 6 1008.7 - 0.4 - - - - - - -
30/07:00pm 10.0 W 7 8 1008.2 - 0.4 - - - - - - -
30/06:30pm 10.3 WSW 8 11 1007.9 - 0.4 - - - - - - -
30/06:00pm 10.8 WSW 11 15 1007.9 - 0.4 - - - - - - -
30/05:30pm 10.7 W 10 14 1007.8 - 0.4 - - - - - - -
30/05:00pm 11.4 WSW 11 14 1007.7 - 0.4 - - - - - - -
30/04:30pm 12.6 SW 11 15 1007.6 - 0.4 - - - - - - -
30/04:00pm 13.2 WSW 12 19 1007.6 - 0.4 - - - - - - -
30/03:30pm 12.4 W 13 19 1007.4 - 0.4 - - - - - - -
30/03:00pm 13.8 WSW 14 19 1007.2 - 0.4 - - - - - - -
30/02:30pm 13.5 WSW 14 18 1007.3 - 0.4 - - - - - - -
30/02:00pm 13.4 SW 14 17 1007.6 - 0.4 - - - - - - -
30/01:30pm 12.3 WSW 15 20 1007.7 - 0.4 - - - - - - -
30/01:00pm 13.9 WSW 16 21 1007.7 - 0.4 - - - - - - -
30/12:30pm 12.9 SW 16 22 1008.1 - 0.4 - - - - - - -
30/12:00pm 14.3 WSW 16 20 1008.1 - 0.4 - - - - - - -
30/11:30am 13.4 SW 18 23 1008.2 - 0.4 - - - - - - -
30/11:00am 12.3 SW 16 22 1008.3 - 0.4 - - - - - - -
30/10:30am 12.9 SW 16 24 1008.0 - 0.0 - - - - - - -
30/10:19am 12.8 SW 17 27 1008.0 - 0.0 - - - - - - -
30/10:00am 12.5 WSW 17 24 1008.1 - 0.0 - - - - - - -
30/09:30am 12.4 SW 15 22 1008.1 - 0.0 - - - - - - -
30/09:00am 12.1 SW 14 21 1007.8 - 5.0 - - - - - - -
30/08:30am 11.7 SW 13 17 1007.3 - 5.0 - - - - - - -
30/08:00am 11.5 SW 15 21 1006.8 - 5.0 - - - - - - -
30/07:30am 11.7 WSW 14 19 1006.1 - 4.8 - - - - - - -
30/07:00am 10.9 SW 13 18 1005.8 - 4.8 - - - - - - -
30/06:30am 10.5 WSW 14 21 1005.3 - 4.8 - - - - - - -
30/06:00am 10.4 SW 14 19 1004.8 - 4.8 - - - - - - -
30/05:30am 10.6 SW 14 20 1004.4 - 4.8 - - - - - - -
30/05:00am 10.7 WSW 14 19 1004.0 - 4.8 - - - - - - -
30/04:30am 10.6 SW 13 19 1003.7 - 4.8 - - - - - - -
30/04:00am 10.6 WSW 15 23 1003.3 - 4.6 - - - - - - -
30/03:30am 10.7 SW 16 25 1003.2 - 4.6 - - - - - - -
30/03:00am 10.6 SW 17 21 1003.1 - 4.4 Recent precip. - - - - - -
30/02:35am 10.4 SW 15 25 1002.9 - 4.4 - - - - - - -
30/02:30am 10.4 SW 17 25 1002.9 - 4.2 - - - - - - -
30/02:00am 10.3 WSW 18 26 1002.8 - 4.0 - - - - - - -
30/01:30am 10.3 WSW 18 26 1002.8 - 3.8 - - - - - - -
30/01:05am 10.2 WSW 20 30 1002.8 - 3.8 - - - - - - -
30/01:00am 10.2 WSW 20 27 1002.9 - 3.6 - - - - - - -
30/12:30am 10.1 SW 19 30 1002.7 - 3.6 - - - - - - -
30/12:01am 10.2 SW 17 27 1002.5 - 3.4 - - - - - - -
30/12:00am 10.2 SW 18 27 1002.5 - 3.4 Recent precip. - - - - - -
 
Date/Time
CST
Temp
°C
Wind Pressure Rain since
9am
mm
Weather Cloud Vis
km
Sea
Height
m
Swell
Dir  Spd
kts
Gust
kts
hPa Trend Height
m
Period
s
Dir
29/11:30pm 10.4 WSW 21 32 1002.1 - 3.2 - - - - - - -
29/11:02pm 9.9 WSW 22 32 1002.1 - 3.2 - - - - - - -
29/11:00pm 10.0 WSW 23 32 1002.1 - 3.2 - - - - - - -
29/10:54pm 10.2 WSW 22 32 1002.0 - 3.2 - - - - - - -
29/10:30pm 10.4 WSW 22 28 1002.2 - 3.2 - - - - - - -
29/10:00pm 9.8 WSW 21 33 1002.3 - 3.2 - - - - - - -
29/09:32pm 10.1 WSW 21 34 1002.0 - 3.0 - - - - - - -
29/09:30pm 10.1 WSW 21 30 1002.1 - 3.0 - - - - - - -
29/09:18pm 9.9 WSW 21 32 1002.1 - 3.0 - - - - - - -
29/09:00pm 9.8 WSW 23 30 1001.9 - 3.0 Recent precip. - - - - - -
29/08:57pm 9.7 WSW 23 33 1002.1 - 3.0 - - - - - - -
29/08:30pm 9.7 WSW 22 30 1001.8 - 3.0 - - - - - - -
29/08:11pm 9.7 WSW 24 35 1001.5 - 2.8 - - - - - - -
29/08:00pm 9.9 WSW 23 32 1001.2 - 2.8 - - - - - - -
29/07:37pm 9.7 WSW 21 31 1001.1 - 2.8 - - - - - - -
29/07:30pm 9.8 WSW 23 31 1000.8 - 2.8 - - - - - - -
29/07:02pm 9.8 WSW 21 31 1000.4 - 2.8 - - - - - - -
29/07:00pm 9.7 WSW 21 29 1000.3 - 2.8 - - - - - - -
29/06:30pm 9.9 WSW 23 31 999.9 - 2.6 - - - - - - -
29/06:04pm 10.0 WSW 19 29 999.6 - 2.6 - - - - - - -
29/06:00pm 10.0 WSW 21 29 999.6 - 2.6 - - - - - - -
29/05:30pm 10.1 WSW 23 35 999.0 - 2.6 - - - - - - -
29/05:07pm 10.3 WSW 21 32 998.5 - 2.6 - - - - - - -
29/05:00pm 10.4 WSW 22 30 998.5 - 2.6 - - - - - - -
29/04:30pm 10.4 WSW 25 37 997.9 - 2.6 - - - - - - -
29/04:00pm 10.6 WSW 23 34 997.3 - 2.4 - - - - - - -
29/03:30pm 10.6 WSW 27 38 996.6 - 2.4 - - - - - - -
29/03:00pm 10.8 WSW 26 37 996.0 - 2.2 Recent precip. - - - - - -
29/02:30pm 11.1 WSW 26 38 995.4 - 2.0 - - - - - - -
29/02:00pm 10.9 WSW 26 38 995.0 - 2.0 - - - - - - -
29/01:30pm 10.9 WSW 28 41 994.4 - 1.8 - - - - - - -
29/01:00pm 11.4 WSW 30 44 993.9 - 1.6 - - - - - - -
29/12:30pm 11.0 WSW 30 40 993.3 - 1.6 - - - - - - -
29/12:00pm 10.8 WSW 31 43 993.0 - 1.4 Rain - - - - - -
29/11:30am 11.2 WSW 31 43 992.3 - 1.2 - - - - - - -
29/11:00am 10.7 WSW 27 37 992.0 - 1.0 - - - - - - -
29/10:30am 10.9 WSW 30 41 991.5 - 0.6 - - - - - - -
29/10:00am 10.8 WSW 27 40 990.9 - 0.4 - - - - - - -
29/09:30am 10.9 WSW 30 40 990.1 - 0.2 - - - - - - -
29/09:03am 10.4 WSW 23 33 989.9 - 0.2 - - - - - - -
29/09:00am 10.3 WSW 24 33 989.8 - 19.8 Rain - - - - - -
29/08:39am 11.8 WSW 25 36 989.0 - 19.2 - - - - - - -
29/08:30am 11.8 WSW 20 27 988.8 - 19.2 - - - - - - -
29/08:06am 11.0 WSW 23 35 988.0 - 19.2 - - - - - - -
29/08:00am 11.0 WSW 21 29 988.4 - 19.2 - - - - - - -
29/07:38am 11.8 WSW 20 30 987.4 - 19.2 - - - - - - -
29/07:30am 11.4 WSW 21 29 987.3 - 19.2 - - - - - - -
29/07:00am 11.1 WSW 19 29 986.9 - 19.0 - - - - - - -
29/06:31am 10.4 WSW 24 34 986.1 - 19.0 - - - - - - -
29/06:30am 10.5 WSW 25 34 986.0 - 19.0 - - - - - - -
29/06:12am 10.6 WSW 24 35 985.3 - 19.0 - - - - - - -
29/06:00am 10.0 WSW 24 33 984.9 - 19.0 Recent precip. - - - - - -
29/05:32am 9.8 WSW 26 51 983.7 - 18.4 - - - - - - -
29/05:30am 9.9 WSW 25 36 983.8 - 18.4 - - - - - - -
29/05:00am 10.1 WSW 29 51 981.9 - 18.0 - - - - - - -
29/04:31am 9.7 WSW 28 39 980.6 - 17.4 - - - - - - -
29/04:30am 9.6 WSW 28 37 980.8 - 17.2 - - - - - - -
29/04:00am 10.8 W 33 47 979.0 - 15.8 - - - - - - -
29/03:30am 11.0 W 32 44 978.4 - 15.8 - - - - - - -
29/03:00am 9.7 WNW 29 40 978.5 - 15.4 Rain - - - - - -
29/02:30am 9.0 WNW 34 48 979.2 - 14.6 - - - - - - -
29/02:00am 8.6 WNW 35 49 980.3 - 12.0 - - - - - - -
29/01:30am 10.0 WNW 34 47 981.3 - 11.0 - - - - - - -
29/01:00am 9.8 WNW 31 45 982.8 - 10.4 - Partly cloudy - - - - -
29/12:30am 9.5 WNW 29 44 984.0 - 10.0 - Partly cloudy - - - - -
29/12:03am 9.3 WNW 28 39 985.2 - 9.0 - Partly cloudy 5 - - - -
29/12:00am 9.3 WNW 28 38 985.2 - 9.0 Rain Cloudy 6 - - - -
 
Date/Time
CST
Temp
°C
Wind Pressure Rain since
9am
mm
Weather Cloud Vis
km
Sea
Height
m
Swell
Dir  Spd
kts
Gust
kts
hPa Trend Height
m
Period
s
Dir
28/11:47pm 9.1 NW 28 40 985.8 - 8.8 - Partly cloudy 9 - - - -
28/11:33pm 8.3 WNW 31 52 986.3 - 8.8 - Partly cloudy 2 - - - -
28/11:32pm 7.7 WNW 30 52 986.5 - 8.8 - Partly cloudy 2 - - - -
28/11:30pm 7.3 WNW 31 52 986.6 - 8.8 - Partly cloudy 2 - - - -
28/11:27pm 7.3 NW 29 52 986.8 - 8.4 - Partly cloudy 3 - - - -
28/11:25pm 8.5 NW 27 50 986.8 - 7.6 - Partly cloudy 7 - - - -
28/11:12pm 8.7 NW 22 32 987.4 - 7.2 - Partly cloudy 4 - - - -
28/11:05pm 8.5 NW 18 29 987.0 - 6.6 - Partly cloudy 10 - - - -
28/11:00pm 8.4 NW 18 25 987.5 - 6.6 - Partly cloudy 10 - - - -
28/10:49pm 8.8 NW 17 24 988.5 - 6.6 - Partly cloudy 5 - - - -
28/10:41pm 8.6 NW 15 22 988.3 - 5.8 - Partly cloudy 10 - - - -
28/10:30pm 8.6 NW 21 29 988.5 - 5.8 - Partly cloudy 5 - - - -
28/10:22pm 8.4 NW 18 29 989.1 - 5.6 - Partly cloudy 5 - - - -
28/10:19pm 8.1 NW 18 25 989.2 - 5.4 - Partly cloudy 6 - - - -
28/10:00pm 8.4 NW 19 38 990.2 - 4.8 - Partly cloudy 4 - - - -
28/09:58pm 8.9 NW 18 29 990.3 - 4.4 - Partly cloudy 5 - - - -
28/09:47pm 9.3 NW 20 29 990.0 - 3.8 - Partly cloudy 10 - - - -
28/09:33pm 9.0 NW 21 36 990.6 - 3.8 - Partly cloudy 5 - - - -
28/09:32pm 9.1 NW 20 36 990.6 - 3.8 - Partly cloudy 6 - - - -
28/09:30pm 9.3 NW 18 36 990.7 - 3.6 - Partly cloudy 8 - - - -
28/09:29pm 9.3 NW 17 36 990.8 - 3.6 - Partly cloudy 9 - - - -
28/09:00pm 8.5 NW 18 25 991.5 - 3.4 Recent precip. Mostly cloudy 10 - - - -
28/08:30pm 9.9 NW 17 27 992.0 - 3.2 - Partly cloudy 10 - - - -
28/08:22pm 10.0 NW 17 27 991.9 - 3.2 - Partly cloudy 10 - - - -
28/08:00pm 10.0 WNW 19 27 991.9 - 3.2 - Partly cloudy 10 - - - -
28/07:45pm 10.0 NW 19 25 991.7 - 3.2 - Partly cloudy 10 - - - -
28/07:32pm 9.8 NW 23 35 991.9 - 3.2 - Partly cloudy 5 - - - -
28/07:30pm 9.9 WNW 24 35 991.8 - 3.2 - Partly cloudy 6 - - - -
28/07:04pm 11.4 WNW 23 33 991.6 - 2.8 - - 10 - - - -
28/07:00pm 11.5 WNW 24 33 991.7 - 2.8 - - 10 - - - -
28/06:39pm 12.0 WNW 20 32 991.5 - 2.8 - - - - - - -
28/06:30pm 11.7 WNW 20 27 991.7 - 2.8 - - - - - - -
28/06:00pm 11.9 W 21 28 991.8 - 2.8 - - - - - - -
28/05:30pm 12.1 W 19 32 991.5 - 2.8 - - - - - - -
28/05:04pm 11.4 W 16 26 991.2 - 2.8 - Partly cloudy - - - - -
28/05:00pm 11.6 W 18 26 991.2 - 2.8 - Partly cloudy - - - - -
28/04:30pm 12.3 W 23 33 990.8 - 2.8 - Partly cloudy - - - - -
28/04:01pm 12.7 WNW 23 35 990.4 - 2.8 - Partly cloudy - - - - -
28/04:00pm 12.6 WNW 23 32 990.4 - 2.8 - Partly cloudy - - - - -
28/03:52pm 12.5 WNW 21 32 990.3 - 2.4 - Partly cloudy 10 - - - -
28/03:38pm 12.7 WNW 17 26 990.4 - 2.4 - Partly cloudy 10 - - - -
28/03:30pm 11.7 WNW 20 27 990.7 - 2.4 - Partly cloudy 7 - - - -
28/03:13pm 11.8 WNW 20 33 991.2 - 1.8 - Partly cloudy 5 - - - -
28/03:08pm 12.4 WNW 20 27 991.1 - 1.8 - Partly cloudy 10 - - - -
28/03:00pm 12.4 WNW 23 33 991.0 - 1.8 Recent precip. Cloudy 7 - - - -
28/02:33pm 12.0 W 24 34 990.8 - 1.0 - Partly cloudy 3 - - - -
28/02:30pm 11.9 W 25 34 990.7 - 0.8 - Partly cloudy 3 - - - -
28/02:23pm 12.0 WNW 24 38 990.5 - 0.8 - Partly cloudy 4 - - - -
28/02:20pm 12.4 WNW 21 38 990.9 - 0.4 - Partly cloudy 5 - - - -
28/02:01pm 14.6 WNW 19 29 990.7 - 0.0 - Partly cloudy 10 - - - -
28/02:00pm 14.6 WNW 20 29 990.7 - 0.0 - Partly cloudy 10 - - - -
28/01:30pm 17.3 WNW 22 32 990.0 - 0.0 - Partly cloudy 10 - - - -
28/01:00pm 18.2 N 16 33 990.8 - 0.0 - Partly cloudy 10 - - - -
28/12:59pm 17.8 N 16 33 991.0 - 0.0 - Partly cloudy 10 - - - -
28/12:30pm 16.0 NE 16 24 990.9 - 0.0 - Partly cloudy 10 - - - -
28/12:00pm 17.5 NE 17 23 992.2 - 0.0 - Cloudy 10 - - - -
28/11:40am 17.7 NNE 22 32 992.2 - 0.0 - Partly cloudy 10 - - - -
28/11:30am 17.3 NNE 25 33 991.5 - 0.0 - Partly cloudy 10 - - - -
28/11:00am 16.4 NNE 22 32 992.1 - 0.0 - Partly cloudy 10 - - - -
28/10:34am 15.0 NNE 17 27 992.8 - 0.0 - - 10 - - - -
28/10:30am 15.1 NNE 18 27 993.4 - 0.0 - - 10 - - - -
28/10:03am 16.6 NE 16 26 994.3 - 0.0 - - 10 - - - -
28/10:00am 17.1 NE 16 24 994.5 - 0.0 - - 10 - - - -
28/09:30am 16.1 NE 17 22 996.3 - 0.0 - Partly cloudy 10 - - - -
28/09:00am 14.9 NNE 13 18 997.5 - - - Cloudy 10 - - - -
28/08:30am 14.1 NE 13 17 998.4 - - - Partly cloudy 10 - - - -
28/08:00am 12.6 NE 12 17 999.6 - - - Cloudy 10 - - - -
28/07:30am 11.4 NE 9 12 1000.3 - - - - 10 - - - -

Other Formats:

Comma delimited format used in spreadsheet applications
http://www.bom.gov.au/fwo/IDS60701/IDS60701.95661.axf

JavaScript Object Notation format (JSON) in row-major order
http://www.bom.gov.au/fwo/IDS60701/IDS60701.95661.json